createdAt,value
2022-12-03T00:00:36.458Z,13.23
2022-12-03T00:03:03.231Z,13.32
2022-12-03T00:05:29.922Z,13.40
2022-12-03T00:07:56.586Z,13.55
2022-12-03T00:10:23.303Z,14.52
2022-12-03T00:12:49.835Z,13.68
2022-12-03T00:15:16.578Z,14.63
2022-12-03T00:17:43.121Z,13.95
2022-12-03T00:20:11.932Z,13.85
2022-12-03T00:22:38.532Z,14.18
2022-12-03T00:25:05.561Z,14.30
2022-12-03T00:27:32.110Z,12.68
2022-12-03T00:29:58.665Z,14.73
2022-12-03T00:32:25.263Z,13.18
2022-12-03T00:34:52.157Z,14.35
2022-12-03T00:37:19.010Z,14.63
2022-12-03T00:39:45.610Z,14.07
2022-12-03T00:42:12.135Z,15.48
2022-12-03T00:44:38.677Z,14.50
2022-12-03T00:47:05.288Z,14.15
2022-12-03T00:49:32.034Z,15.27
2022-12-03T00:51:58.570Z,14.95
2022-12-03T00:54:31.423Z,13.32
2022-12-03T00:56:58.551Z,13.70
2022-12-03T00:59:25.153Z,15.30
2022-12-03T01:01:51.782Z,16.30
2022-12-03T01:04:18.455Z,14.80
2022-12-03T01:06:45.056Z,14.48
2022-12-03T01:09:11.698Z,16.50
2022-12-03T01:11:38.238Z,16.83
2022-12-03T01:14:16.102Z,17.55
2022-12-03T01:16:43.248Z,19.60
2022-12-03T01:19:10.908Z,20.00
2022-12-03T01:21:37.779Z,18.25
2022-12-03T01:24:04.826Z,17.70
2022-12-03T01:26:31.387Z,18.40
2022-12-03T01:28:57.969Z,17.48
2022-12-03T01:31:43.068Z,16.90
2022-12-03T01:34:09.675Z,16.60
2022-12-03T01:36:36.234Z,16.38
2022-12-03T01:39:04.084Z,16.20
2022-12-03T01:41:31.169Z,17.33
2022-12-03T01:43:58.180Z,17.33
2022-12-03T01:46:28.630Z,17.45
2022-12-03T01:48:56.116Z,16.38
2022-12-03T01:51:22.828Z,18.45
2022-12-03T01:53:49.480Z,16.55
2022-12-03T01:56:17.776Z,18.60
2022-12-03T01:58:44.911Z,15.85
2022-12-03T02:01:14.231Z,17.13
2022-12-03T02:03:41.151Z,18.70
2022-12-03T02:06:19.117Z,19.95
2022-12-03T02:08:46.531Z,17.02
2022-12-03T02:11:27.231Z,17.40
2022-12-03T02:13:57.380Z,20.08
2022-12-03T02:16:24.025Z,18.13
2022-12-03T02:18:50.681Z,18.58
2022-12-03T02:21:41.363Z,18.92
2022-12-03T02:24:17.732Z,16.88
2022-12-03T02:26:44.420Z,17.33
2022-12-03T02:29:11.142Z,18.23
2022-12-03T02:31:37.901Z,18.83
2022-12-03T02:34:06.778Z,17.98
2022-12-03T02:36:34.146Z,18.42
2022-12-03T02:39:00.807Z,19.73
2022-12-03T02:41:45.993Z,19.98
2022-12-03T02:44:12.699Z,19.55
2022-12-03T02:46:39.406Z,18.35
2022-12-03T02:49:06.215Z,20.08
2022-12-03T02:51:33.732Z,18.40
2022-12-03T02:54:00.818Z,18.70
2022-12-03T02:56:29.573Z,17.40
2022-12-03T02:58:58.566Z,18.33
2022-12-03T03:01:25.488Z,17.58
2022-12-03T03:03:52.246Z,17.20
2022-12-03T03:06:19.683Z,18.88
2022-12-03T03:08:46.311Z,19.42
2022-12-03T03:11:13.072Z,19.80
2022-12-03T03:13:39.773Z,19.60
2022-12-03T03:16:07.712Z,19.98
2022-12-03T03:18:35.083Z,17.52
2022-12-03T03:21:02.025Z,19.27
2022-12-03T03:23:28.580Z,18.17
2022-12-03T03:25:57.977Z,18.83
2022-12-03T03:28:25.683Z,18.30
2022-12-03T03:30:52.436Z,18.27
2022-12-03T03:33:19.165Z,16.92
2022-12-03T03:35:47.627Z,17.40
2022-12-03T03:40:40.748Z,15.48
2022-12-03T03:43:07.346Z,18.08
2022-12-03T03:45:34.046Z,19.95
2022-12-03T03:48:01.118Z,19.58
2022-12-03T03:50:28.590Z,16.88
2022-12-03T03:52:55.740Z,18.57
2022-12-03T03:55:22.611Z,17.30
2022-12-03T03:57:49.151Z,16.60
2022-12-03T04:00:15.900Z,20.48
2022-12-03T04:02:42.773Z,19.48
2022-12-03T04:05:18.634Z,17.85
2022-12-03T04:07:45.367Z,17.55
2022-12-03T04:10:32.335Z,17.63
2022-12-03T04:12:59.660Z,15.55
2022-12-03T04:15:26.226Z,16.95
2022-12-03T04:18:13.045Z,15.30
2022-12-03T04:20:39.671Z,15.38
2022-12-03T04:23:06.469Z,15.88
2022-12-03T04:25:51.759Z,16.58
2022-12-03T04:28:36.765Z,16.67
2022-12-03T04:31:26.212Z,15.38
2022-12-03T04:34:11.308Z,15.90
2022-12-03T04:36:38.092Z,15.07
2022-12-03T04:39:05.059Z,15.20
2022-12-03T04:41:31.723Z,12.77
2022-12-03T04:44:16.817Z,15.43
2022-12-03T04:46:43.415Z,14.45
2022-12-03T04:49:10.003Z,14.82
2022-12-03T04:51:36.610Z,15.05
2022-12-03T04:54:03.206Z,14.60
2022-12-03T04:56:29.769Z,15.48
2022-12-03T04:58:56.330Z,14.77
2022-12-03T05:01:23.152Z,16.05
2022-12-03T05:03:49.711Z,14.43
2022-12-03T05:06:16.256Z,13.88
2022-12-03T05:08:42.850Z,16.52
2022-12-03T05:11:09.391Z,14.63
2022-12-03T05:13:36.162Z,15.30
2022-12-03T05:16:02.740Z,17.00
2022-12-03T05:18:29.305Z,16.65
2022-12-03T05:20:55.892Z,15.20
2022-12-03T05:23:22.480Z,15.75
2022-12-03T05:25:49.100Z,17.17
2022-12-03T05:28:15.696Z,17.15
2022-12-03T05:30:42.266Z,15.10
2022-12-03T05:33:08.857Z,17.27
2022-12-03T05:35:35.416Z,16.75
2022-12-03T05:38:01.966Z,16.63
2022-12-03T05:40:28.739Z,16.48
2022-12-03T05:42:56.841Z,17.30
2022-12-03T05:45:30.679Z,17.25
2022-12-03T05:47:58.402Z,15.88
2022-12-03T05:50:27.730Z,15.38
2022-12-03T05:52:54.279Z,17.40
2022-12-03T05:55:20.845Z,17.35
2022-12-03T05:57:47.763Z,18.00
2022-12-03T06:00:20.078Z,15.82
2022-12-03T06:02:46.873Z,17.40
2022-12-03T06:05:14.611Z,16.15
2022-12-03T06:07:41.397Z,15.98
2022-12-03T06:10:10.055Z,16.10
2022-12-03T06:12:36.671Z,16.70
2022-12-03T06:15:03.572Z,15.70
2022-12-03T06:17:30.190Z,16.52
2022-12-03T06:19:56.791Z,17.80
2022-12-03T06:22:23.353Z,15.48
2022-12-03T06:24:50.620Z,17.35
2022-12-03T06:27:17.475Z,16.73
2022-12-03T06:29:44.251Z,14.77
2022-12-03T06:32:11.134Z,17.33
2022-12-03T06:34:37.829Z,16.13
2022-12-03T06:37:04.643Z,14.63
2022-12-03T06:39:31.200Z,15.02
2022-12-03T06:41:57.769Z,16.17
2022-12-03T06:44:24.399Z,16.13
2022-12-03T06:46:50.979Z,13.90
2022-12-03T06:49:17.755Z,15.15
2022-12-03T06:51:44.317Z,15.80
2022-12-03T06:54:10.879Z,14.80
2022-12-03T06:56:43.553Z,13.93
2022-12-03T06:59:12.250Z,13.90
2022-12-03T07:01:38.869Z,14.73
2022-12-03T07:04:05.713Z,15.05
2022-12-03T07:06:32.271Z,14.65
2022-12-03T07:08:58.833Z,12.32
2022-12-03T07:11:31.361Z,15.80
2022-12-03T07:14:05.440Z,13.00
2022-12-03T07:16:32.827Z,14.27
2022-12-03T07:18:59.516Z,14.93
2022-12-03T07:21:26.053Z,14.10
2022-12-03T07:23:52.638Z,14.65
2022-12-03T07:26:19.368Z,13.65
2022-12-03T07:28:48.257Z,12.27
2022-12-03T07:31:15.289Z,13.48
2022-12-03T07:33:42.423Z,13.07
2022-12-03T07:36:09.892Z,12.70
2022-12-03T07:38:36.575Z,13.97
2022-12-03T07:41:03.515Z,13.57
2022-12-03T07:43:30.119Z,12.07
2022-12-03T07:45:56.657Z,13.82
2022-12-03T07:48:23.216Z,13.18
2022-12-03T07:50:49.882Z,15.38
2022-12-03T07:53:16.521Z,15.25
2022-12-03T07:55:43.077Z,16.90
2022-12-03T07:58:09.662Z,16.95
2022-12-03T08:00:36.376Z,17.73
2022-12-03T08:03:03.018Z,16.92
2022-12-03T08:05:29.883Z,15.90
2022-12-03T08:07:56.764Z,15.90
2022-12-03T08:10:25.063Z,16.10
2022-12-03T08:12:51.670Z,15.98
2022-12-03T08:15:25.671Z,15.15
2022-12-03T08:17:55.253Z,16.45
2022-12-03T08:20:23.817Z,16.05
2022-12-03T08:22:52.016Z,14.88
2022-12-03T08:25:24.890Z,16.83
2022-12-03T08:27:53.655Z,16.13
2022-12-03T08:30:20.595Z,16.17
2022-12-03T08:32:47.425Z,15.90
2022-12-03T08:35:17.208Z,16.38
2022-12-03T08:37:43.825Z,16.23
2022-12-03T08:40:23.255Z,17.52
2022-12-03T08:42:50.344Z,16.23
2022-12-03T08:45:39.348Z,15.77
2022-12-03T08:48:32.596Z,24.58
2022-12-03T08:51:05.427Z,18.30
2022-12-03T08:53:35.045Z,17.10
2022-12-03T08:56:26.370Z,19.17
2022-12-03T08:58:58.628Z,16.25
2022-12-03T09:01:34.000Z,17.95
2022-12-03T09:04:38.298Z,17.67
2022-12-03T09:07:05.645Z,16.75
2022-12-03T09:09:32.346Z,18.48
2022-12-03T09:11:58.880Z,21.33
2022-12-03T09:14:25.508Z,19.15
2022-12-03T09:16:55.797Z,19.20
2022-12-03T09:19:24.335Z,20.10
2022-12-03T09:21:51.096Z,17.73
2022-12-03T09:24:32.893Z,19.45
2022-12-03T09:26:59.447Z,19.30
2022-12-03T09:29:26.019Z,18.70
2022-12-03T09:31:52.724Z,20.30
2022-12-03T09:34:19.355Z,21.88
2022-12-03T09:36:45.902Z,21.08
2022-12-03T09:39:12.584Z,21.23
2022-12-03T09:41:39.184Z,22.45
2022-12-03T09:44:06.492Z,23.58
2022-12-03T09:46:35.590Z,21.95
2022-12-03T09:49:03.379Z,21.63
2022-12-03T09:51:34.006Z,22.83
2022-12-03T09:54:01.650Z,20.20
2022-12-03T09:56:28.205Z,21.63
2022-12-03T09:58:54.933Z,18.88
2022-12-03T10:01:21.879Z,21.30
2022-12-03T10:03:50.635Z,20.88
2022-12-03T10:06:20.298Z,22.40
2022-12-03T10:08:48.746Z,20.73
2022-12-03T10:13:42.415Z,19.55
2022-12-03T10:16:15.748Z,19.38
2022-12-03T10:18:45.432Z,18.55
2022-12-03T10:21:19.806Z,19.95
2022-12-03T10:23:55.141Z,20.55
2022-12-03T10:26:38.011Z,19.58
2022-12-03T10:29:13.071Z,19.38
2022-12-03T10:31:39.807Z,21.52
2022-12-03T10:34:06.357Z,21.65
2022-12-03T10:36:33.259Z,21.27
2022-12-03T10:39:12.472Z,20.75
2022-12-03T10:41:40.011Z,19.80
2022-12-03T10:44:30.553Z,23.27
2022-12-03T10:47:11.741Z,20.38
2022-12-03T10:49:39.103Z,19.75
2022-12-03T10:52:06.443Z,20.52
2022-12-03T10:54:34.619Z,21.45
2022-12-03T10:57:01.991Z,19.75
2022-12-03T10:59:32.025Z,21.20
2022-12-03T11:01:58.871Z,21.63
2022-12-03T11:04:36.311Z,20.67
2022-12-03T11:07:06.245Z,19.13
2022-12-03T11:09:33.510Z,21.52
2022-12-03T11:12:07.318Z,21.60
2022-12-03T11:14:50.724Z,20.58
2022-12-03T11:17:40.567Z,23.55
2022-12-03T11:20:33.222Z,23.48
2022-12-03T11:23:00.312Z,22.67
2022-12-03T11:25:26.938Z,23.33
2022-12-03T11:28:11.961Z,22.30
2022-12-03T11:30:53.721Z,19.45
2022-12-03T11:33:24.553Z,21.67
2022-12-03T11:36:03.023Z,21.40
2022-12-03T11:38:41.483Z,19.60
2022-12-03T11:41:09.867Z,19.25
2022-12-03T11:46:36.196Z,18.23
2022-12-03T11:49:18.232Z,21.58
2022-12-03T11:51:44.956Z,20.13
2022-12-03T11:54:19.405Z,23.17
2022-12-03T11:56:49.071Z,19.65
2022-12-03T11:59:16.971Z,18.92
2022-12-03T12:01:44.124Z,17.98
2022-12-03T12:04:32.357Z,18.80
2022-12-03T12:06:59.538Z,19.65
2022-12-03T12:09:52.497Z,19.25
2022-12-03T12:12:51.059Z,19.70
2022-12-03T12:15:33.647Z,17.95
2022-12-03T12:18:38.422Z,19.88
2022-12-03T12:21:42.180Z,18.20
2022-12-03T12:24:47.190Z,19.48
2022-12-03T12:27:30.301Z,19.80
2022-12-03T12:30:01.661Z,17.98
2022-12-03T12:32:29.596Z,19.83
2022-12-03T12:35:14.887Z,19.52
2022-12-03T12:37:47.373Z,20.63
2022-12-03T12:40:17.604Z,20.50
2022-12-03T12:42:50.193Z,19.30
2022-12-03T12:45:26.154Z,23.15
2022-12-03T12:48:14.647Z,19.83
2022-12-03T12:50:43.137Z,20.50
2022-12-03T12:55:45.331Z,20.33
2022-12-03T12:58:15.665Z,21.48
2022-12-03T13:00:42.686Z,20.13
2022-12-03T13:03:11.733Z,20.50
2022-12-03T13:05:40.396Z,18.42
2022-12-03T13:08:20.457Z,20.73
2022-12-03T13:10:47.255Z,19.58
2022-12-03T13:13:41.634Z,20.20
2022-12-03T13:16:26.839Z,18.92
2022-12-03T13:18:55.171Z,18.63
2022-12-03T13:21:32.244Z,22.10
2022-12-03T13:23:59.043Z,19.70
2022-12-03T13:26:39.310Z,23.40
2022-12-03T13:29:16.805Z,23.02
2022-12-03T13:31:53.557Z,21.23
2022-12-03T13:34:22.930Z,23.13
2022-12-03T13:36:57.001Z,19.92
2022-12-03T13:39:35.149Z,20.13
2022-12-03T13:42:41.046Z,20.80
2022-12-03T13:45:13.738Z,20.92
2022-12-03T13:47:45.361Z,21.52
2022-12-03T13:50:24.043Z,22.13
2022-12-03T13:52:51.683Z,22.58
2022-12-03T13:55:25.727Z,21.33
2022-12-03T13:57:52.842Z,22.17
2022-12-03T14:00:19.803Z,22.08
2022-12-03T14:02:46.419Z,24.48
2022-12-03T14:05:13.051Z,22.00
2022-12-03T14:07:40.415Z,21.95
2022-12-03T14:10:08.629Z,21.67
2022-12-03T14:12:35.338Z,22.60
2022-12-03T14:15:02.484Z,26.27
2022-12-03T14:17:30.825Z,24.20
2022-12-03T14:19:58.246Z,25.33
2022-12-03T14:22:25.502Z,24.92
2022-12-03T14:24:53.003Z,21.85
2022-12-03T14:27:20.225Z,21.17
2022-12-03T14:29:46.882Z,21.98
2022-12-03T14:32:13.735Z,22.92
2022-12-03T14:34:40.363Z,21.15
2022-12-03T14:37:06.958Z,23.42
2022-12-03T14:39:33.655Z,23.40
2022-12-03T14:42:15.357Z,20.75
2022-12-03T14:44:44.205Z,21.63
2022-12-03T14:47:11.927Z,21.60
2022-12-03T14:49:39.013Z,24.70
2022-12-03T14:52:08.604Z,22.63
2022-12-03T14:54:39.238Z,23.60
2022-12-03T14:57:05.854Z,24.50
2022-12-03T14:59:32.402Z,21.58
2022-12-03T15:01:59.142Z,25.45
2022-12-03T15:04:25.804Z,22.88
2022-12-03T15:06:52.460Z,25.38
2022-12-03T15:09:19.047Z,27.38
2022-12-03T15:11:46.632Z,25.00
2022-12-03T15:14:13.609Z,25.27
2022-12-03T15:16:40.432Z,24.75
2022-12-03T15:19:07.114Z,24.15
2022-12-03T15:21:34.962Z,26.55
2022-12-03T15:24:02.237Z,26.55
2022-12-03T15:26:29.615Z,24.48
2022-12-03T15:28:56.297Z,27.73
2022-12-03T15:31:22.975Z,24.75
2022-12-03T15:33:49.571Z,25.13
2022-12-03T15:36:16.758Z,27.67
2022-12-03T15:38:43.370Z,23.50
2022-12-03T15:41:24.283Z,25.58
2022-12-03T15:43:52.511Z,25.83
2022-12-03T15:46:21.887Z,27.83
2022-12-03T15:48:48.595Z,23.27
2022-12-03T15:51:15.213Z,23.90
2022-12-03T15:53:42.351Z,25.40
2022-12-03T15:56:09.008Z,25.42
2022-12-03T15:58:35.648Z,24.02
2022-12-03T16:01:02.353Z,26.63
2022-12-03T16:03:29.178Z,23.60
2022-12-03T16:05:55.774Z,27.15
2022-12-03T16:08:22.425Z,28.63
2022-12-03T16:10:49.088Z,23.02
2022-12-03T16:13:15.697Z,24.55
2022-12-03T16:15:42.384Z,25.58
2022-12-03T16:18:09.282Z,24.45
2022-12-03T16:20:35.873Z,26.25
2022-12-03T16:23:02.714Z,23.38
2022-12-03T16:25:29.282Z,23.30
2022-12-03T16:27:56.565Z,22.75
2022-12-03T16:30:24.432Z,25.20
2022-12-03T16:32:51.174Z,26.15
2022-12-03T16:35:17.767Z,24.80
2022-12-03T16:37:44.652Z,23.98
2022-12-03T16:40:11.681Z,25.25
2022-12-03T16:42:38.236Z,25.25
2022-12-03T16:45:08.069Z,23.77
2022-12-03T16:47:34.979Z,25.40
2022-12-03T16:50:07.729Z,24.67
2022-12-03T16:52:35.026Z,23.65
2022-12-03T16:55:01.824Z,24.67
2022-12-03T16:57:33.378Z,25.83
2022-12-03T17:00:00.532Z,23.65
2022-12-03T17:02:27.732Z,26.23
2022-12-03T17:04:54.579Z,25.00
2022-12-03T17:07:21.336Z,26.00
2022-12-03T17:09:47.886Z,26.40
2022-12-03T17:12:14.467Z,26.52
2022-12-03T17:14:41.054Z,24.83
2022-12-03T17:17:07.613Z,25.35
2022-12-03T17:19:34.158Z,27.95
2022-12-03T17:22:00.800Z,26.25
2022-12-03T17:24:27.378Z,26.80
2022-12-03T17:26:53.947Z,25.92
2022-12-03T17:29:20.481Z,28.42
2022-12-03T17:31:47.102Z,24.45
2022-12-03T17:34:13.819Z,26.45
2022-12-03T17:36:40.400Z,25.17
2022-12-03T17:39:06.981Z,25.20
2022-12-03T17:41:33.541Z,25.95
2022-12-03T17:44:00.133Z,27.15
2022-12-03T17:46:26.755Z,24.85
2022-12-03T17:48:53.351Z,24.52
2022-12-03T17:51:21.176Z,25.05
2022-12-03T17:53:47.938Z,25.63
2022-12-03T17:56:14.550Z,27.75
2022-12-03T17:58:41.078Z,25.15
2022-12-03T18:01:10.362Z,24.85
2022-12-03T18:03:37.582Z,23.75
2022-12-03T18:06:04.477Z,25.48
2022-12-03T18:08:31.033Z,25.23
2022-12-03T18:10:57.585Z,25.85
2022-12-03T18:13:24.210Z,25.90
2022-12-03T18:15:50.796Z,24.55
2022-12-03T18:18:17.367Z,24.48
2022-12-03T18:20:44.670Z,29.35
2022-12-03T18:23:11.935Z,25.65
2022-12-03T18:25:38.615Z,25.58
2022-12-03T18:28:05.221Z,27.20
2022-12-03T18:30:31.768Z,25.60
2022-12-03T18:32:58.319Z,28.33
2022-12-03T18:35:24.966Z,27.65
2022-12-03T18:37:51.728Z,24.95
2022-12-03T18:40:23.359Z,26.63
2022-12-03T18:42:50.291Z,26.58
2022-12-03T18:45:17.225Z,26.98
2022-12-03T18:47:44.176Z,27.85
2022-12-03T18:50:11.848Z,29.55
2022-12-03T18:52:38.590Z,27.75
2022-12-03T18:55:06.193Z,27.23
2022-12-03T18:57:32.765Z,26.35
2022-12-03T18:59:59.425Z,27.52
2022-12-03T19:02:54.326Z,27.17
2022-12-03T19:05:12.656Z,26.15
2022-12-03T19:07:39.285Z,26.95
2022-12-03T19:10:06.633Z,27.73
2022-12-03T19:12:33.497Z,26.40
2022-12-03T19:15:00.109Z,26.17
2022-12-03T19:17:27.428Z,28.45
2022-12-03T19:19:54.978Z,27.27
2022-12-03T19:22:22.011Z,26.20
2022-12-03T19:24:48.616Z,27.17
2022-12-03T19:27:15.498Z,26.45
2022-12-03T19:29:42.591Z,26.85
2022-12-03T19:32:09.204Z,26.20
2022-12-03T19:34:35.895Z,27.60
2022-12-03T19:37:02.489Z,26.70
2022-12-03T19:39:29.042Z,25.95
2022-12-03T19:41:55.649Z,28.10
2022-12-03T19:44:22.214Z,28.58
2022-12-03T19:46:49.571Z,27.35
2022-12-03T19:49:18.558Z,27.30
2022-12-03T19:51:45.223Z,27.75
2022-12-03T19:54:12.443Z,25.65
2022-12-03T19:56:39.504Z,26.08
2022-12-03T19:59:06.333Z,27.45
2022-12-03T20:01:35.192Z,26.98
2022-12-03T20:04:03.115Z,27.77
2022-12-03T20:06:31.549Z,28.60
2022-12-03T20:11:31.165Z,24.15
2022-12-03T20:14:02.242Z,28.50
2022-12-03T20:16:29.554Z,28.70
2022-12-03T20:18:58.509Z,27.77
2022-12-03T20:21:25.360Z,28.65
2022-12-03T20:23:51.923Z,27.98
2022-12-03T20:26:20.194Z,28.33
2022-12-03T20:28:48.063Z,28.88
2022-12-03T20:31:17.047Z,27.13
2022-12-03T20:33:45.991Z,25.42
2022-12-03T20:36:14.358Z,27.13
2022-12-03T20:41:12.211Z,27.25
2022-12-03T20:43:38.817Z,27.30
2022-12-03T20:46:12.759Z,26.38
2022-12-03T20:48:40.274Z,28.48
2022-12-03T20:51:08.816Z,27.07
2022-12-03T20:53:36.209Z,26.08
2022-12-03T20:56:03.602Z,27.08
2022-12-03T20:58:30.899Z,26.58
2022-12-03T21:01:15.562Z,27.15
2022-12-03T21:03:43.270Z,24.77
2022-12-03T21:06:10.338Z,24.80
2022-12-03T21:08:41.634Z,26.23
2022-12-03T21:11:20.356Z,24.88
2022-12-03T21:13:47.832Z,24.15
2022-12-03T21:16:51.985Z,27.70
2022-12-03T21:21:38.893Z,24.38
2022-12-03T21:24:05.676Z,25.40
2022-12-03T21:26:32.710Z,24.48
2022-12-03T21:28:59.261Z,25.38
2022-12-03T21:31:26.681Z,25.48
2022-12-03T21:33:54.471Z,25.57
2022-12-03T21:36:21.105Z,25.40
2022-12-03T21:38:48.252Z,26.20
2022-12-03T21:41:15.500Z,25.58
2022-12-03T21:43:42.426Z,24.88
2022-12-03T21:47:12.136Z,25.08
2022-12-03T21:48:59.931Z,25.50
2022-12-03T21:51:26.492Z,25.00
2022-12-03T21:53:53.394Z,24.67
2022-12-03T21:56:20.410Z,24.58
2022-12-03T21:58:47.554Z,24.25
2022-12-03T22:01:17.471Z,23.17
2022-12-03T22:03:44.575Z,24.17
2022-12-03T22:06:11.652Z,23.98
2022-12-03T22:08:38.896Z,26.50
2022-12-03T22:11:24.454Z,25.20
2022-12-03T22:13:51.492Z,25.02
2022-12-03T22:16:20.470Z,26.60
2022-12-03T22:18:47.202Z,25.23
2022-12-03T22:21:19.390Z,25.58
2022-12-03T22:23:46.027Z,23.85
2022-12-03T22:26:15.835Z,23.88
2022-12-03T22:28:43.403Z,24.80
2022-12-03T22:31:10.719Z,25.52
2022-12-03T22:33:37.750Z,24.52
2022-12-03T22:36:16.205Z,22.77
2022-12-03T22:38:46.416Z,24.30
2022-12-03T22:41:13.933Z,24.60
2022-12-03T22:43:40.692Z,25.60
2022-12-03T22:46:10.454Z,24.15
2022-12-03T22:48:37.106Z,25.30
2022-12-03T22:51:04.488Z,25.33
2022-12-03T22:53:31.079Z,24.85
2022-12-03T22:55:59.689Z,27.50
2022-12-03T22:58:27.207Z,24.52
2022-12-03T23:00:58.568Z,25.30
2022-12-03T23:03:29.091Z,23.52
2022-12-03T23:05:55.698Z,24.63
2022-12-03T23:08:22.343Z,24.05
2022-12-03T23:10:52.842Z,24.98
2022-12-03T23:13:20.220Z,24.05
2022-12-03T23:15:48.245Z,23.75
2022-12-03T23:18:15.338Z,25.38
2022-12-03T23:20:47.750Z,23.35
2022-12-03T23:23:14.729Z,26.13
2022-12-03T23:25:41.350Z,23.63
2022-12-03T23:28:08.549Z,24.88
2022-12-03T23:30:36.586Z,24.77
2022-12-03T23:33:04.205Z,28.80
2022-12-03T23:35:31.515Z,23.38
2022-12-03T23:37:58.323Z,25.38
2022-12-03T23:40:24.871Z,26.95
2022-12-03T23:42:51.407Z,23.27
2022-12-03T23:45:17.959Z,24.40
2022-12-03T23:47:44.560Z,25.02
2022-12-03T23:50:11.669Z,22.98
2022-12-03T23:52:38.394Z,24.80
2022-12-03T23:55:05.453Z,22.27
2022-12-03T23:57:32.038Z,24.63
2022-12-03T23:59:58.595Z,23.42
